Time;durP1;ratioP1;P1;durP2;ratioP2;P2;SDS_P1;SDS_P2;PMS_P1;PMS_P2;Temp;Humidity;BMP_temperature;BMP_pressure;BME280_temperature;BME280_humidity;BME280_pressure;Samples;Min_cycle;Max_cycle;Signal;HPM_P1;HPM_P2
2022/04/22 00:00:01;;;;;;;9.00;4.22;;;;;;;9.16;84.29;101351.16;5026597;28;20037;-71
2022/04/22 00:02:26;;;;;;;7.35;3.60;;;;;;;9.11;84.94;101343.66;5026266;28;20413;-71
2022/04/22 00:04:52;;;;;;;7.13;3.72;;;;;;;9.15;85.26;101354.78;5026312;28;20113;-71
2022/04/22 00:07:18;;;;;;;13.18;4.60;;;;;;;9.09;84.59;101335.03;5011593;28;20037;-71
2022/04/22 00:09:43;;;;;;;6.60;4.20;;;;;;;9.11;84.92;101348.91;5025649;28;20038;-71
2022/04/22 00:12:09;;;;;;;9.55;3.97;;;;;;;9.11;85.00;101348.91;5019571;28;20393;-71
2022/04/22 00:14:34;;;;;;;6.55;4.07;;;;;;;9.06;84.51;101349.31;5027679;28;20030;-71
2022/04/22 00:17:00;;;;;;;9.77;4.20;;;;;;;8.99;85.44;101335.00;5022728;28;20044;-71
2022/04/22 00:19:26;;;;;;;8.43;4.28;;;;;;;9.05;85.82;101344.16;5013007;28;20033;-71
2022/04/22 00:21:53;;;;;;;8.82;4.38;;;;;;;8.98;85.78;101343.84;5026256;28;20053;-72
2022/04/22 00:24:19;;;;;;;8.35;4.45;;;;;;;9.00;85.67;101341.91;4995780;28;20074;-71
2022/04/22 00:26:44;;;;;;;8.00;4.22;;;;;;;8.94;86.06;101331.88;5025199;28;20037;-71
2022/04/22 00:29:11;;;;;;;9.07;4.47;;;;;;;9.00;86.11;101335.81;5013936;28;20041;-71
2022/04/22 00:31:36;;;;;;;5.95;3.95;;;;;;;9.02;86.27;101342.63;5026500;28;20367;-71
2022/04/22 00:34:01;;;;;;;9.68;4.13;;;;;;;9.05;86.07;101333.63;5025265;28;20029;-71
2022/04/22 00:36:27;;;;;;;12.02;4.25;;;;;;;8.99;85.58;101329.72;5026307;28;20033;-71
2022/04/22 00:38:52;;;;;;;7.97;4.63;;;;;;;9.00;85.98;101333.19;5025862;28;20060;-71
2022/04/22 00:41:18;;;;;;;7.13;4.03;;;;;;;9.00;86.20;101331.38;5011662;28;20032;-71
2022/04/22 00:43:49;;;;;;;6.38;3.90;;;;;;;9.00;85.75;101328.75;5028364;28;20418;-71
2022/04/22 00:46:15;;;;;;;9.77;4.88;;;;;;;8.95;85.68;101319.53;5025364;28;20025;-71
2022/04/22 00:48:40;;;;;;;5.53;4.03;;;;;;;8.97;86.01;101326.38;5011715;28;20095;-71
2022/04/22 00:51:07;;;;;;;5.68;4.10;;;;;;;8.90;85.54;101308.56;5029655;28;20486;-71
2022/04/22 00:53:46;;;;;;;6.13;4.30;;;;;;;8.88;86.16;101306.06;5024429;28;20143;-71
2022/04/22 00:56:12;;;;;;;10.02;4.03;;;;;;;8.87;85.86;101312.31;5022371;28;20385;-71
2022/04/22 00:58:43;;;;;;;6.18;4.13;;;;;;;8.89;86.07;101313.00;5009860;28;20117;-71
2022/04/22 01:01:11;;;;;;;6.05;4.05;;;;;;;8.90;85.95;101312.03;5022743;28;20039;-71
2022/04/22 01:03:36;;;;;;;7.72;4.07;;;;;;;8.88;86.07;101294.72;5024407;28;20025;-71
2022/04/22 01:11:35;;;;;;;11.48;4.10;;;;;;;8.65;86.58;101290.38;5027609;28;20083;-72
2022/04/22 01:14:01;;;;;;;6.78;3.95;;;;;;;8.58;87.04;101294.50;5027423;28;20032;-72
2022/04/22 01:16:28;;;;;;;6.28;4.25;;;;;;;8.40;87.29;101267.03;5027037;28;20041;-71
2022/04/22 01:18:53;;;;;;;7.25;4.43;;;;;;;8.26;87.23;101256.81;4995608;28;20059;-71
2022/04/22 01:21:19;;;;;;;13.15;4.30;;;;;;;8.43;87.82;101295.75;5010750;28;20029;-72
2022/04/22 01:23:44;;;;;;;7.80;4.15;;;;;;;8.34;88.24;101296.44;5024436;28;20053;-72
2022/04/22 01:26:11;;;;;;;8.15;4.30;;;;;;;8.21;88.61;101286.13;5025569;28;20677;-72
2022/04/22 01:28:38;;;;;;;8.60;4.07;;;;;;;8.18;88.71;101289.81;5027780;28;20032;-71
2022/04/22 01:31:03;;;;;;;9.35;4.30;;;;;;;8.16;88.39;101283.00;5028676;28;20033;-71
2022/04/22 01:33:28;;;;;;;10.05;5.50;;;;;;;8.16;88.76;101278.56;5016046;28;20048;-71
2022/04/22 01:35:54;;;;;;;8.35;4.40;;;;;;;8.09;89.08;101277.41;5024895;28;20025;-71
2022/04/22 01:38:19;;;;;;;11.20;4.68;;;;;;;7.98;88.67;101264.28;5025469;28;20552;-71
2022/04/22 01:40:45;;;;;;;9.23;4.65;;;;;;;7.96;88.86;101261.78;5015729;28;20452;-71
2022/04/22 01:43:11;;;;;;;6.63;4.35;;;;;;;8.03;89.11;101270.00;5022731;28;20109;-70
2022/04/22 01:45:36;;;;;;;9.70;4.53;;;;;;;7.98;89.48;101269.53;5028189;28;20190;-71
2022/04/22 01:48:02;;;;;;;8.00;4.20;;;;;;;7.91;89.65;101269.19;5026778;28;20448;-71
2022/04/22 01:50:27;;;;;;;7.32;4.95;;;;;;;7.86;90.16;101265.25;5026067;28;20044;-71
2022/04/22 01:52:53;;;;;;;7.75;5.03;;;;;;;7.82;90.34;101272.56;5024211;28;20125;-71
2022/04/22 01:55:18;;;;;;;9.32;4.45;;;;;;;7.72;90.80;101261.94;5025300;28;20022;-71
2022/04/22 01:57:44;;;;;;;7.43;4.57;;;;;;;7.68;91.04;101263.13;5028680;28;20485;-71
2022/04/22 02:00:11;;;;;;;9.90;3.90;;;;;;;7.74;91.00;101267.91;5024201;28;20034;-71
2022/04/22 02:02:36;;;;;;;7.57;3.83;;;;;;;7.72;90.74;101269.81;5025909;28;20504;-71
2022/04/22 02:05:03;;;;;;;8.65;4.75;;;;;;;7.76;90.48;101278.31;5026238;28;20076;-71
2022/04/22 02:07:28;;;;;;;7.40;4.30;;;;;;;7.80;90.47;101277.09;5027466;28;20033;-71
2022/04/22 02:09:54;;;;;;;8.15;4.57;;;;;;;7.68;90.53;101257.88;5026656;28;20095;-71
2022/04/22 02:12:19;;;;;;;10.10;4.30;;;;;;;7.68;90.76;101268.38;5010006;28;20045;-71
2022/04/22 02:14:44;;;;;;;7.85;4.25;;;;;;;7.67;90.86;101276.41;5028148;28;20033;-71
2022/04/22 02:17:10;;;;;;;6.18;4.00;;;;;;;7.66;90.62;101275.53;5026749;28;20022;-71
2022/04/22 02:19:35;;;;;;;5.97;3.70;;;;;;;7.62;90.48;101274.13;5013700;28;20401;-70
2022/04/22 02:22:01;;;;;;;9.57;3.88;;;;;;;7.63;90.84;101270.53;5022193;28;20299;-70
2022/04/22 02:24:26;;;;;;;7.88;3.80;;;;;;;7.62;90.67;101276.75;5027480;28;20041;-70
2022/04/22 02:29:39;;;;;;;5.35;3.63;;;;;;;7.51;91.07;101271.50;5024703;28;20080;-70
2022/04/22 02:32:05;;;;;;;7.50;3.72;;;;;;;7.49;91.28;101273.41;5019306;28;20026;-70
2022/04/22 02:34:31;;;;;;;9.30;4.15;;;;;;;7.31;91.86;101255.50;5030538;28;20087;-70
2022/04/22 02:36:56;;;;;;;6.38;4.05;;;;;;;7.37;92.08;101269.94;5027837;28;20108;-70
2022/04/22 02:39:22;;;;;;;8.88;4.32;;;;;;;7.38;91.78;101266.34;5026642;28;20021;-71
2022/04/22 02:47:15;;;;;;;9.18;3.90;;;;;;;7.21;91.71;101234.38;5028259;28;20048;-71
2022/04/22 02:49:44;;;;;;;6.72;4.15;;;;;;;7.23;91.41;101234.28;5017390;28;20022;-71
2022/04/22 02:52:11;;;;;;;6.72;4.20;;;;;;;7.34;91.81;101250.03;5011992;28;20044;-71
2022/04/22 02:54:37;;;;;;;6.60;3.60;;;;;;;7.33;91.68;101247.50;5029466;28;20025;-71
2022/04/22 02:57:03;;;;;;;5.93;3.65;;;;;;;7.33;91.42;101250.97;5029455;28;20048;-71
2022/04/22 02:59:29;;;;;;;10.75;4.15;;;;;;;7.25;91.13;101240.25;5026958;28;20025;-71
2022/04/22 03:01:55;;;;;;;9.10;4.13;;;;;;;7.34;90.88;101250.03;5029593;28;20033;-71
2022/04/22 03:04:21;;;;;;;6.40;3.92;;;;;;;7.16;91.78;101240.94;5029313;28;20033;-72
2022/04/22 03:06:46;;;;;;;4.70;3.33;;;;;;;6.97;91.73;101216.13;5012964;28;20465;-71
2022/04/22 03:09:12;;;;;;;5.65;3.13;;;;;;;7.12;91.87;101245.59;5018570;28;20044;-71
2022/04/22 03:11:37;;;;;;;7.80;3.33;;;;;;;6.84;92.18;101215.38;5028320;28;20101;-71
2022/04/22 03:14:05;;;;;;;9.85;4.25;;;;;;;6.97;92.68;101237.09;5006192;28;20034;-71
2022/04/22 03:16:31;;;;;;;9.25;3.47;;;;;;;6.90;93.00;101243.78;5025902;28;20493;-71
2022/04/22 03:18:57;;;;;;;4.65;3.38;;;;;;;6.89;92.78;101243.88;5023323;28;20026;-71
2022/04/22 03:21:23;;;;;;;6.38;3.58;;;;;;;6.82;92.39;101234.81;5027190;28;20433;-71
2022/04/22 03:23:49;;;;;;;6.60;3.53;;;;;;;6.80;92.34;101229.69;5029051;28;20057;-71
2022/04/22 03:26:14;;;;;;;4.95;2.72;;;;;;;6.82;92.37;101237.44;5027915;28;20532;-71
2022/04/22 03:28:40;;;;;;;4.88;2.80;;;;;;;6.80;92.24;101237.53;5025263;28;20083;-71
2022/04/22 03:31:05;;;;;;;4.38;3.13;;;;;;;6.71;92.50;101222.50;5027391;28;20026;-71
2022/04/22 03:33:31;;;;;;;4.38;2.53;;;;;;;6.74;92.78;101230.97;5027519;28;20049;-71
2022/04/22 03:35:56;;;;;;;6.82;3.28;;;;;;;6.71;92.74;101233.84;5030741;28;20084;-71
2022/04/22 03:38:23;;;;;;;10.88;3.45;;;;;;;6.71;93.28;101222.50;5026530;28;20124;-71
2022/04/22 03:40:50;;;;;;;7.82;3.58;;;;;;;6.67;93.12;101228.94;5030569;28;20026;-71
2022/04/22 03:43:16;;;;;;;8.95;3.50;;;;;;;6.54;93.90;101211.47;5029858;28;20048;-71
2022/04/22 03:45:42;;;;;;;7.20;3.80;;;;;;;6.56;93.87;101225.31;5030383;28;20063;-71
2022/04/22 03:48:09;;;;;;;7.82;2.92;;;;;;;6.58;93.62;101223.41;5025287;28;20259;-71
2022/04/22 03:50:36;;;;;;;9.50;3.65;;;;;;;6.61;93.30;101221.53;5014189;28;20360;-71
2022/04/22 03:53:03;;;;;;;8.27;4.25;;;;;;;6.47;93.44;101199.78;5028248;28;20029;-71
2022/04/22 03:55:28;;;;;;;6.90;3.65;;;;;;;6.58;92.96;101231.28;5019041;28;20026;-71
2022/04/22 03:58:12;;;;;;;7.50;3.15;;;;;;;6.49;92.87;101208.38;5025583;28;20080;-71
2022/04/22 04:00:42;;;;;;;10.35;3.13;;;;;;;6.56;92.34;101214.81;5028084;28;20488;-71
2022/04/22 04:03:09;;;;;;;7.72;3.53;;;;;;;6.62;91.85;101231.03;5028007;28;20500;-71
2022/04/22 04:05:36;;;;;;;6.45;3.47;;;;;;;6.65;91.87;101226.41;5028056;28;20026;-71
2022/04/22 04:08:01;;;;;;;7.78;3.05;;;;;;;6.62;90.89;101224.03;5028472;28;20025;-71
2022/04/22 04:16:00;;;;;;;8.23;3.22;;;;;;;6.64;90.49;101216.03;5021817;28;20044;-71
2022/04/22 04:18:31;;;;;;;6.60;2.58;;;;;;;6.61;90.48;101230.22;5026806;28;20037;-71
2022/04/22 04:23:46;;;;;;;5.25;3.13;;;;;;;6.52;90.42;101228.28;5016774;28;20170;-71
2022/04/22 04:26:13;;;;;;;4.53;2.60;;;;;;;6.42;91.07;101214.19;5027708;28;20657;-71
2022/04/22 04:28:39;;;;;;;6.40;3.72;;;;;;;6.53;90.30;101230.81;5017878;28;20321;-71
2022/04/22 04:31:06;;;;;;;5.38;2.28;;;;;;;6.53;90.95;101228.19;5029581;28;20398;-71
2022/04/22 04:33:32;;;;;;;5.25;2.78;;;;;;;6.50;91.08;101223.16;5020248;28;20244;-71
2022/04/22 04:35:58;;;;;;;7.43;3.25;;;;;;;6.53;90.41;101222.06;5027164;28;20033;-71
2022/04/22 04:38:24;;;;;;;4.38;2.50;;;;;;;6.52;90.14;101221.25;5025462;28;20627;-71
2022/04/22 04:40:50;;;;;;;5.78;2.47;;;;;;;6.41;90.46;101202.88;5010855;28;20086;-71
2022/04/22 04:43:17;;;;;;;5.90;2.72;;;;;;;6.55;90.72;101221.03;5023610;28;20037;-71
2022/04/22 04:45:43;;;;;;;5.78;2.60;;;;;;;6.59;90.27;101219.84;5027004;28;20033;-71
2022/04/22 04:48:09;;;;;;;6.25;2.30;;;;;;;6.59;90.54;101224.25;5024371;28;20033;-71
2022/04/22 04:50:34;;;;;;;6.72;2.70;;;;;;;6.59;90.12;101211.97;5021986;28;20029;-71
2022/04/22 04:52:59;;;;;;;4.55;2.42;;;;;;;6.62;89.93;101225.81;5023266;28;20021;-71
2022/04/22 04:55:26;;;;;;;5.90;2.55;;;;;;;6.62;89.68;101226.66;5022921;28;20568;-71
2022/04/22 04:57:51;;;;;;;3.05;2.03;;;;;;;6.65;89.56;101228.22;5020222;28;20205;-71
2022/04/22 05:00:20;;;;;;;3.45;2.55;;;;;;;6.69;89.48;101227.03;5024262;28;20088;-71
2022/04/22 05:02:46;;;;;;;3.17;2.25;;;;;;;6.73;89.86;101228.47;5019400;28;20041;-71
2022/04/22 05:05:12;;;;;;;3.08;2.00;;;;;;;6.72;89.00;101221.53;5024258;28;20033;-71
2022/04/22 05:07:55;;;;;;;4.13;2.35;;;;;;;6.70;88.69;101216.41;5004673;28;20516;-69
2022/04/22 05:10:20;;;;;;;7.18;2.22;;;;;;;6.75;88.61;101218.69;5021637;28;20444;-71
2022/04/22 05:12:47;;;;;;;3.70;2.28;;;;;;;6.76;88.38;101223.81;5026715;28;20022;-70
2022/04/22 05:15:13;;;;;;;5.03;2.90;;;;;;;6.77;89.21;101216.78;5024375;28;20105;-70
2022/04/22 05:17:41;;;;;;;2.65;1.80;;;;;;;6.86;89.40;101221.34;5023944;28;20124;-70
2022/04/22 05:20:10;;;;;;;4.93;2.00;;;;;;;6.94;90.07;101221.56;5017478;28;20037;-70
2022/04/22 05:22:35;;;;;;;4.43;2.80;;;;;;;7.02;90.07;101222.81;5023253;28;20061;-70
2022/04/22 05:25:00;;;;;;;5.88;2.58;;;;;;;6.92;90.10;101212.97;5023650;28;20405;-70
2022/04/22 05:27:26;;;;;;;5.55;2.67;;;;;;;7.01;91.11;101214.06;5017175;28;20108;-70
2022/04/22 05:32:38;;;;;;;3.28;2.10;;;;;;;7.13;89.52;101225.44;5023345;28;20488;-71
2022/04/22 05:35:05;;;;;;;5.43;2.22;;;;;;;7.17;89.33;101232.13;5023229;28;20033;-71
2022/04/22 05:37:53;;;;;;;4.38;1.65;;;;;;;7.22;88.61;101224.72;5025207;28;20083;-71
2022/04/22 05:40:20;;;;;;;4.88;1.85;;;;;;;7.24;88.26;101217.56;5019730;28;20043;-71
2022/04/22 05:42:47;;;;;;;7.65;2.53;;;;;;;7.34;88.66;101223.75;5023340;28;20032;-71
2022/04/22 05:45:14;;;;;;;3.92;2.10;;;;;;;7.39;88.06;101226.03;5021584;28;20042;-71
2022/04/22 05:47:41;;;;;;;4.95;1.98;;;;;;;7.47;88.02;101235.91;5024032;28;20103;-71
2022/04/22 05:50:08;;;;;;;4.55;1.77;;;;;;;7.53;87.91;101235.44;5020521;28;20481;-71
2022/04/22 05:52:35;;;;;;;3.85;1.95;;;;;;;7.43;87.36;101214.34;5025201;28;20037;-71
2022/04/22 05:55:02;;;;;;;6.07;2.17;;;;;;;7.54;87.72;101237.13;5017520;28;20045;-71
2022/04/22 05:57:32;;;;;;;3.20;1.90;;;;;;;7.41;87.51;101206.56;5016115;28;20397;-71
2022/04/22 06:00:03;;;;;;;4.22;2.22;;;;;;;7.65;87.65;101231.03;4989176;28;20397;-71
2022/04/22 06:02:29;;;;;;;6.93;1.70;;;;;;;7.65;86.88;101220.53;5034054;28;20033;-71
2022/04/22 06:04:55;;;;;;;3.25;1.88;;;;;;;7.77;87.04;101227.41;5028058;28;20504;-71
2022/04/22 06:07:20;;;;;;;2.55;1.90;;;;;;;7.76;86.11;101231.84;5026867;28;20033;-71
2022/04/22 06:12:30;;;;;;;3.28;1.60;;;;;;;7.96;85.79;101219.72;5026321;28;20049;-71
2022/04/22 06:14:59;;;;;;;4.55;2.05;;;;;;;8.04;85.55;101216.50;5031447;28;20424;-71
2022/04/22 06:17:26;;;;;;;3.13;1.80;;;;;;;8.19;85.18;101224.94;5031292;28;20045;-71
2022/04/22 06:19:51;;;;;;;4.22;1.73;;;;;;;8.28;84.52;101218.06;5026421;28;20033;-70
2022/04/22 06:22:17;;;;;;;8.15;2.72;;;;;;;8.37;84.24;101218.16;5025996;28;20108;-70
2022/04/22 06:24:42;;;;;;;4.30;2.10;;;;;;;8.52;84.04;101216.06;5028229;28;20052;-70
2022/04/22 06:27:09;;;;;;;3.47;1.90;;;;;;;8.59;83.14;101226.91;5029538;28;20037;-70
2022/04/22 06:29:35;;;;;;;4.78;1.92;;;;;;;8.70;83.01;101218.13;5026748;28;20116;-70
2022/04/22 06:32:02;;;;;;;7.38;2.17;;;;;;;8.65;82.38;101216.72;5023341;28;20464;-70
2022/04/22 06:34:27;;;;;;;3.05;1.80;;;;;;;8.66;82.15;101204.38;5023291;28;20048;-70
2022/04/22 06:36:53;;;;;;;3.92;2.28;;;;;;;8.92;81.29;101225.06;5008001;28;20026;-72
2022/04/22 06:39:19;;;;;;;5.88;2.13;;;;;;;8.90;80.16;101216.44;5022371;28;20029;-71
2022/04/22 06:47:12;;;;;;;2.08;1.35;;;;;;;9.21;79.53;101212.88;5025743;28;20414;-70
2022/04/22 06:49:38;;;;;;;4.78;1.95;;;;;;;9.29;78.64;101209.56;5021791;28;20029;-71
2022/04/22 06:52:06;;;;;;;4.95;1.95;;;;;;;9.51;78.74;101212.97;5029452;28;20406;-71
2022/04/22 06:54:32;;;;;;;3.25;2.47;;;;;;;9.75;77.44;101209.97;5028837;28;20036;-71
2022/04/22 06:56:59;;;;;;;4.47;1.90;;;;;;;10.07;76.51;101196.56;5028857;28;20029;-71
2022/04/22 06:59:24;;;;;;;7.10;2.00;;;;;;;10.35;75.51;101204.66;5023353;28;20029;-71
2022/04/22 07:01:50;;;;;;;7.03;2.75;;;;;;;10.50;74.67;101200.63;5020334;28;20037;-71
2022/04/22 07:04:16;;;;;;;4.38;1.92;;;;;;;10.90;72.61;101199.56;5028242;28;20025;-71
2022/04/22 07:06:42;;;;;;;3.08;2.08;;;;;;;11.28;72.04;101205.69;5026271;28;20028;-71
2022/04/22 07:09:10;;;;;;;5.18;1.70;;;;;;;11.40;71.23;101204.50;5022612;28;20034;-71
2022/04/22 07:11:38;;;;;;;7.00;2.45;;;;;;;11.87;69.94;101191.16;5025896;28;20033;-71
2022/04/22 07:14:04;;;;;;;4.35;2.13;;;;;;;12.13;68.61;101201.03;5025830;28;20060;-71
2022/04/22 07:16:30;;;;;;;3.70;1.92;;;;;;;12.14;68.42;101202.69;5022979;28;20068;-72
2022/04/22 07:18:57;;;;;;;3.15;1.60;;;;;;;12.48;67.44;101186.09;5029813;28;20084;-71
2022/04/22 07:21:23;;;;;;;3.38;1.75;;;;;;;13.00;66.09;101193.19;5024142;28;20029;-71
2022/04/22 07:23:49;;;;;;;4.40;1.85;;;;;;;13.07;65.48;101189.78;5024974;28;20264;-71
2022/04/22 07:26:17;;;;;;;4.85;1.58;;;;;;;12.61;65.86;101181.22;5024394;28;20029;-71
2022/04/22 07:28:48;;;;;;;7.03;1.92;;;;;;;12.58;67.54;101192.13;5028620;28;20032;-71
2022/04/22 07:31:21;;;;;;;6.93;2.10;;;;;;;12.63;66.19;101192.50;5027510;28;20095;-71
2022/04/22 07:33:47;;;;;;;3.92;1.60;;;;;;;12.93;66.22;101206.25;5025465;28;20065;-71
2022/04/22 07:36:13;;;;;;;3.72;1.67;;;;;;;13.28;65.85;101196.50;5025249;28;20036;-71
2022/04/22 07:38:38;;;;;;;5.40;2.28;;;;;;;13.30;64.67;101190.06;5021439;28;20138;-71
2022/04/22 07:41:07;;;;;;;4.93;1.98;;;;;;;14.47;62.52;101188.28;5004720;28;20088;-71
2022/04/22 07:49:03;;;;;;;2.85;1.83;;;;;;;14.19;62.09;101190.44;5022849;28;20092;-71
2022/04/22 07:51:28;;;;;;;4.07;1.77;;;;;;;14.94;61.15;101195.56;5022159;28;20036;-71
2022/04/22 07:53:57;;;;;;;3.22;1.80;;;;;;;15.70;58.91;101197.72;5004809;28;20037;-71
2022/04/22 07:56:23;;;;;;;7.53;2.20;;;;;;;15.91;58.79;101192.63;5030118;28;20428;-71
2022/04/22 07:58:49;;;;;;;3.30;1.80;;;;;;;15.83;59.25;101182.06;5023423;28;20440;-72
2022/04/22 08:01:14;;;;;;;3.17;2.20;;;;;;;16.98;57.15;101176.56;5002323;28;20045;-72
2022/04/22 08:03:39;;;;;;;2.58;1.65;;;;;;;17.69;54.17;101186.69;5019242;28;20025;-71
2022/04/22 08:06:10;;;;;;;4.55;1.70;;;;;;;17.16;55.22;101178.88;5023161;28;20033;-72
2022/04/22 08:08:36;;;;;;;5.47;2.10;;;;;;;17.98;53.69;101161.72;5023234;28;20095;-72
2022/04/22 08:11:01;;;;;;;3.85;1.80;;;;;;;18.69;52.46;101175.06;5020666;28;20460;-71
2022/04/22 08:13:26;;;;;;;5.60;1.95;;;;;;;16.99;55.09;101164.91;5025136;28;20040;-71
2022/04/22 08:15:52;;;;;;;3.75;1.80;;;;;;;17.37;53.64;101188.75;5018447;28;20040;-72
2022/04/22 08:18:18;;;;;;;2.55;1.85;;;;;;;15.87;57.52;101180.69;5019757;28;20624;-72
2022/04/22 08:20:43;;;;;;;3.00;1.65;;;;;;;17.27;55.59;101177.56;5023505;28;20037;-72
2022/04/22 08:23:09;;;;;;;3.55;1.92;;;;;;;18.07;52.51;101184.66;5018998;28;20057;-72
2022/04/22 08:25:35;;;;;;;3.88;1.90;;;;;;;17.52;54.10;101186.06;5016747;28;20041;-72
2022/04/22 08:28:02;;;;;;;4.93;1.85;;;;;;;18.73;51.70;101171.97;5025273;28;20029;-72
2022/04/22 08:30:28;;;;;;;3.05;2.28;;;;;;;19.24;50.63;101166.34;5026746;28;20021;-72
2022/04/22 08:32:54;;;;;;;4.00;2.10;;;;;;;17.84;53.39;101157.31;5027665;28;20087;-72
2022/04/22 08:35:19;;;;;;;4.78;2.10;;;;;;;18.79;51.27;101177.44;4999935;28;20034;-72
2022/04/22 08:37:45;;;;;;;3.47;1.90;;;;;;;19.64;50.28;101169.97;5021184;28;20068;-72
2022/04/22 08:40:11;;;;;;;3.30;2.00;;;;;;;18.60;49.96;101167.41;5026355;28;20094;-72
2022/04/22 08:42:39;;;;;;;8.07;2.70;;;;;;;19.25;49.09;101149.25;5019405;28;20775;-72
2022/04/22 08:45:09;;;;;;;3.65;1.98;;;;;;;17.79;50.76;101165.00;5025725;28;20053;-72
2022/04/22 08:50:20;;;;;;;5.13;1.83;;;;;;;18.74;51.67;101141.56;5024047;28;20125;-72
2022/04/22 08:53:05;;;;;;;2.85;1.90;;;;;;;19.49;49.54;101153.25;5013215;28;20038;-72
2022/04/22 08:55:32;;;;;;;8.68;2.13;;;;;;;19.27;49.47;101148.03;5022868;28;20052;-72
2022/04/22 08:57:59;;;;;;;4.38;2.03;;;;;;;19.39;49.68;101140.25;5024163;28;20033;-72
2022/04/22 09:00:27;;;;;;;3.88;1.88;;;;;;;20.43;47.76;101141.63;5017491;28;20095;-72
2022/04/22 09:02:57;;;;;;;3.33;1.83;;;;;;;21.09;46.72;101147.88;5006463;28;20037;-72
2022/04/22 09:05:24;;;;;;;4.88;1.65;;;;;;;21.90;45.27;101146.44;5023003;28;20485;-72
2022/04/22 09:07:51;;;;;;;3.25;2.00;;;;;;;21.76;45.31;101145.72;5025757;28;20537;-72
2022/04/22 09:10:16;;;;;;;2.83;1.98;;;;;;;22.30;44.15;101124.66;5022898;28;20597;-71
2022/04/22 09:12:57;;;;;;;2.67;1.60;;;;;;;21.74;43.19;101121.75;5024325;28;20042;-72
2022/04/22 09:15:27;;;;;;;3.20;1.85;;;;;;;19.96;48.25;101113.19;5027317;28;20039;-71
2022/04/22 09:17:57;;;;;;;4.38;1.85;;;;;;;20.10;48.94;101110.31;5024335;28;20025;-71
2022/04/22 09:20:28;;;;;;;2.37;1.87;;;;;;;21.97;45.37;101110.44;5025622;28;20033;-71
2022/04/22 09:22:56;;;;;;;3.75;2.22;;;;;;;22.21;44.60;101112.50;5020944;28;20287;-71
2022/04/22 09:25:23;;;;;;;3.30;1.50;;;;;;;22.10;44.35;101103.28;5018668;28;20123;-71
2022/04/22 09:27:49;;;;;;;2.97;1.83;;;;;;;22.78;43.56;101097.88;5024069;28;20712;-71
2022/04/22 09:30:14;;;;;;;5.05;1.85;;;;;;;22.76;43.71;101097.28;5021516;28;20064;-71
2022/04/22 09:32:43;;;;;;;5.00;1.92;;;;;;;22.90;44.66;101100.63;5025455;28;20029;-71
2022/04/22 09:35:10;;;;;;;6.75;1.90;;;;;;;22.66;43.67;101088.06;5024263;28;20030;-71
2022/04/22 09:43:24;;;;;;;3.67;2.28;;;;;;;22.70;44.15;101083.91;5026791;28;20044;-72
2022/04/22 09:45:52;;;;;;;5.25;2.08;;;;;;;22.74;43.95;101087.78;5024155;28;20040;-71
2022/04/22 09:48:20;;;;;;;3.08;1.73;;;;;;;22.78;43.84;101067.47;5045657;28;20025;-72
2022/04/22 09:50:53;;;;;;;5.75;2.13;;;;;;;23.17;42.93;101076.09;5027920;28;20034;-71
2022/04/22 09:53:33;;;;;;;5.38;2.00;;;;;;;23.48;42.47;101076.91;5040481;28;20022;-72
2022/04/22 09:56:08;;;;;;;3.47;2.13;;;;;;;23.64;42.59;101073.53;5028102;28;20132;-72
2022/04/22 09:58:34;;;;;;;2.85;1.73;;;;;;;23.76;41.35;101066.31;5030519;28;20381;-72
2022/04/22 10:01:03;;;;;;;7.68;2.35;;;;;;;24.30;41.84;101068.94;5024880;28;20030;-71
2022/04/22 10:03:30;;;;;;;4.72;1.90;;;;;;;23.73;41.70;101061.34;5029511;28;20057;-72
2022/04/22 10:05:56;;;;;;;3.13;1.98;;;;;;;23.41;42.45;101040.13;5027804;28;20037;-71
2022/04/22 10:08:23;;;;;;;4.38;1.95;;;;;;;23.10;42.03;101072.66;5026082;28;20089;-71
2022/04/22 10:10:52;;;;;;;2.92;1.98;;;;;;;23.40;41.92;101070.78;5031113;28;20048;-71
2022/04/22 10:13:21;;;;;;;3.63;1.83;;;;;;;22.99;42.17;101061.59;5025649;28;20030;-71
2022/04/22 10:15:47;;;;;;;3.50;2.17;;;;;;;22.80;43.23;101057.28;5029641;28;20031;-71
2022/04/22 10:18:15;;;;;;;4.93;2.25;;;;;;;23.08;43.86;101055.91;5028018;28;20037;-71
2022/04/22 10:20:41;;;;;;;5.55;2.20;;;;;;;23.59;42.59;101057.25;5030199;28;20116;-71
2022/04/22 10:23:06;;;;;;;2.67;2.00;;;;;;;23.71;42.84;101059.94;5025401;28;20125;-71
2022/04/22 10:25:33;;;;;;;5.40;2.00;;;;;;;22.72;44.13;101061.09;5022907;28;20382;-71
2022/04/22 10:28:02;;;;;;;4.75;2.40;;;;;;;23.45;42.67;101048.53;5026832;28;20033;-72
2022/04/22 10:30:28;;;;;;;4.22;1.70;;;;;;;23.18;43.21;101048.94;5029304;28;20018;-71
2022/04/22 10:32:55;;;;;;;3.70;2.20;;;;;;;22.69;44.48;101041.88;5027259;28;20033;-71
2022/04/22 10:35:24;;;;;;;3.55;2.05;;;;;;;22.98;44.12;101051.06;5027352;28;20034;-71
2022/04/22 10:37:51;;;;;;;4.07;2.30;;;;;;;22.85;44.29;101040.47;5025676;28;20091;-71
2022/04/22 10:40:22;;;;;;;4.93;2.22;;;;;;;22.32;43.95;101047.25;5019522;28;20025;-71
2022/04/22 10:42:50;;;;;;;4.65;2.20;;;;;;;22.75;43.39;101046.38;5020715;28;20033;-71
2022/04/22 10:48:18;;;;;;;3.65;2.55;;;;;;;18.68;51.16;101036.22;5026474;28;20048;-71
2022/04/22 10:50:56;;;;;;;4.80;2.53;;;;;;;20.84;47.97;101043.97;5024134;28;20574;-71
2022/04/22 10:53:25;;;;;;;3.20;2.38;;;;;;;21.20;45.68;101058.66;5019007;28;20041;-72
2022/04/22 10:55:52;;;;;;;5.22;1.92;;;;;;;20.71;47.47;101036.81;5023649;28;20034;-72
2022/04/22 10:58:19;;;;;;;3.22;2.10;;;;;;;21.13;45.80;101033.72;5025401;28;20017;-70
2022/04/22 11:00:45;;;;;;;2.40;1.98;;;;;;;20.85;47.51;101042.13;5024809;28;20021;-72
2022/04/22 11:03:16;;;;;;;3.05;2.28;;;;;;;22.15;45.03;101036.25;5027078;28;20040;-71
2022/04/22 11:05:47;;;;;;;4.70;2.03;;;;;;;21.16;46.05;101033.28;5018829;28;20418;-71
2022/04/22 11:08:24;;;;;;;2.78;2.00;;;;;;;21.43;45.55;101030.47;5027384;28;20571;-71
2022/04/22 11:10:51;;;;;;;4.13;2.45;;;;;;;21.53;46.19;101025.41;5026956;28;20358;-71
2022/04/22 11:13:38;;;;;;;3.75;2.42;;;;;;;23.03;44.21;101026.19;5027807;28;20017;-71
2022/04/22 11:16:26;;;;;;;4.93;2.72;;;;;;;22.86;43.79;101020.56;5024549;28;20060;-71
2022/04/22 11:19:19;;;;;;;8.88;2.80;;;;;;;22.34;45.02;101024.50;5039538;28;20484;-71
2022/04/22 11:21:52;;;;;;;5.03;2.80;;;;;;;22.48;44.35;101013.59;5021631;28;20400;-71
2022/04/22 11:24:27;;;;;;;4.78;3.08;;;;;;;22.25;43.48;101017.75;5021963;28;20115;-71
2022/04/22 11:27:08;;;;;;;6.80;2.50;;;;;;;21.64;46.82;101000.53;5027022;28;20048;-71
2022/04/22 11:29:34;;;;;;;10.55;2.90;;;;;;;23.19;43.73;101003.97;5030561;28;20225;-71
2022/04/22 11:32:05;;;;;;;5.90;2.78;;;;;;;22.48;44.52;101003.66;5020230;28;20478;-71
2022/04/22 11:35:01;;;;;;;6.75;2.72;;;;;;;23.38;43.74;101010.94;5028594;28;20489;-71
2022/04/22 11:37:26;;;;;;;7.07;2.38;;;;;;;22.87;43.63;101006.06;5028480;28;20026;-71
2022/04/22 11:39:52;;;;;;;4.72;2.78;;;;;;;22.39;44.15;101011.22;5027418;28;20048;-71
2022/04/22 11:42:18;;;;;;;4.55;2.80;;;;;;;22.42;43.12;101004.56;5017309;28;20060;-71
2022/04/22 11:45:04;;;;;;;5.15;3.05;;;;;;;22.71;43.07;101013.72;5027302;28;20029;-71
2022/04/22 11:47:29;;;;;;;3.70;2.90;;;;;;;22.69;42.20;101014.97;5016699;28;20467;-71
2022/04/22 11:49:56;;;;;;;3.83;2.78;;;;;;;23.39;42.10;100996.44;5024984;28;20060;-71
2022/04/22 11:52:22;;;;;;;4.70;2.80;;;;;;;21.06;45.80;101014.16;5021211;28;20029;-71
2022/04/22 11:54:48;;;;;;;4.47;2.67;;;;;;;21.92;44.79;100991.19;5023442;28;20033;-71
2022/04/22 11:57:16;;;;;;;5.45;2.67;;;;;;;22.67;43.97;100992.88;5015475;28;20030;-71
2022/04/22 12:05:31;;;;;;;6.68;2.88;;;;;;;23.55;42.04;101007.56;5024076;28;20064;-71
2022/04/22 12:05:33;;;;;;;7.07;2.80;;;;;;;23.99;41.95;100997.31;5024739;28;20040;-71
2022/04/22 12:08:07;;;;;;;4.30;2.80;;;;;;;23.37;43.28;100990.44;5026695;28;20496;-72
2022/04/22 12:10:33;;;;;;;4.30;3.03;;;;;;;22.23;43.99;100992.16;5027775;28;20082;-70
2022/04/22 12:13:04;;;;;;;3.85;2.65;;;;;;;23.10;43.45;101000.78;5006471;28;20497;-70
2022/04/22 12:15:29;;;;;;;4.57;3.00;;;;;;;23.13;43.63;100991.47;5021218;28;20029;-71
2022/04/22 12:17:56;;;;;;;6.93;3.17;;;;;;;20.67;47.20;100986.50;5027322;28;20120;-70
2022/04/22 12:20:22;;;;;;;4.95;2.97;;;;;;;21.69;47.22;100970.34;5026431;28;20040;-70
2022/04/22 12:22:51;;;;;;;6.13;3.28;;;;;;;22.26;44.68;100972.91;5026039;28;20037;-72